sensor_id;sensor_type;location;lat;lon;timestamp;P1;durP1;ratioP1;P2;durP2;ratioP2
69714;SDS011;56981;53.532;49.398;2023-05-07T00:01:27;5.53;;;2.70;;
69714;SDS011;56981;53.532;49.398;2023-05-07T00:03:53;4.78;;;2.72;;
69714;SDS011;56981;53.532;49.398;2023-05-07T00:06:19;5.32;;;3.13;;
69714;SDS011;56981;53.532;49.398;2023-05-07T00:08:45;5.15;;;2.55;;
69714;SDS011;56981;53.532;49.398;2023-05-07T00:11:11;4.57;;;2.35;;
69714;SDS011;56981;53.532;49.398;2023-05-07T00:13:37;5.25;;;2.40;;
69714;SDS011;56981;53.532;49.398;2023-05-07T00:16:03;4.10;;;2.55;;
69714;SDS011;56981;53.532;49.398;2023-05-07T00:18:29;3.85;;;3.00;;
69714;SDS011;56981;53.532;49.398;2023-05-07T00:20:56;3.50;;;2.50;;
69714;SDS011;56981;53.532;49.398;2023-05-07T00:23:22;4.10;;;2.70;;
69714;SDS011;56981;53.532;49.398;2023-05-07T00:25:48;3.40;;;2.30;;
69714;SDS011;56981;53.532;49.398;2023-05-07T00:28:14;3.30;;;2.00;;
69714;SDS011;56981;53.532;49.398;2023-05-07T00:30:40;5.93;;;2.33;;
69714;SDS011;56981;53.532;49.398;2023-05-07T00:33:06;2.50;;;1.83;;
69714;SDS011;56981;53.532;49.398;2023-05-07T00:35:32;5.10;;;2.58;;
69714;SDS011;56981;53.532;49.398;2023-05-07T00:37:58;3.35;;;2.38;;
69714;SDS011;56981;53.532;49.398;2023-05-07T00:40:24;5.00;;;3.35;;
69714;SDS011;56981;53.532;49.398;2023-05-07T00:42:50;4.15;;;2.70;;
69714;SDS011;56981;53.532;49.398;2023-05-07T00:45:22;4.03;;;2.78;;
69714;SDS011;56981;53.532;49.398;2023-05-07T00:47:51;3.08;;;2.58;;
69714;SDS011;56981;53.532;49.398;2023-05-07T00:50:19;5.00;;;2.80;;
69714;SDS011;56981;53.532;49.398;2023-05-07T00:52:46;5.43;;;3.05;;
69714;SDS011;56981;53.532;49.398;2023-05-07T00:55:12;5.35;;;2.70;;
69714;SDS011;56981;53.532;49.398;2023-05-07T00:57:40;5.03;;;3.05;;
69714;SDS011;56981;53.532;49.398;2023-05-07T01:00:07;4.30;;;2.58;;
69714;SDS011;56981;53.532;49.398;2023-05-07T01:02:35;4.47;;;2.78;;
69714;SDS011;56981;53.532;49.398;2023-05-07T01:05:01;5.55;;;2.75;;
69714;SDS011;56981;53.532;49.398;2023-05-07T01:07:31;3.72;;;2.55;;
69714;SDS011;56981;53.532;49.398;2023-05-07T01:09:58;4.65;;;2.50;;
69714;SDS011;56981;53.532;49.398;2023-05-07T01:12:25;4.38;;;2.80;;
69714;SDS011;56981;53.532;49.398;2023-05-07T01:14:53;5.00;;;2.90;;
69714;SDS011;56981;53.532;49.398;2023-05-07T01:17:19;3.92;;;2.67;;
69714;SDS011;56981;53.532;49.398;2023-05-07T01:19:46;4.47;;;2.70;;
69714;SDS011;56981;53.532;49.398;2023-05-07T01:22:13;6.85;;;2.35;;
69714;SDS011;56981;53.532;49.398;2023-05-07T01:24:42;5.53;;;2.63;;
69714;SDS011;56981;53.532;49.398;2023-05-07T01:27:08;6.43;;;2.85;;
69714;SDS011;56981;53.532;49.398;2023-05-07T01:29:34;4.55;;;2.80;;
69714;SDS011;56981;53.532;49.398;2023-05-07T01:32:00;5.07;;;2.70;;
69714;SDS011;56981;53.532;49.398;2023-05-07T01:34:30;4.60;;;2.70;;
69714;SDS011;56981;53.532;49.398;2023-05-07T01:36:58;5.82;;;2.92;;
69714;SDS011;56981;53.532;49.398;2023-05-07T01:39:25;6.45;;;2.70;;
69714;SDS011;56981;53.532;49.398;2023-05-07T01:41:53;3.83;;;2.15;;
69714;SDS011;56981;53.532;49.398;2023-05-07T01:44:24;6.32;;;2.30;;
69714;SDS011;56981;53.532;49.398;2023-05-07T01:46:51;3.03;;;2.30;;
69714;SDS011;56981;53.532;49.398;2023-05-07T01:49:18;2.97;;;2.30;;
69714;SDS011;56981;53.532;49.398;2023-05-07T01:51:45;3.92;;;2.03;;
69714;SDS011;56981;53.532;49.398;2023-05-07T01:54:11;5.80;;;2.65;;
69714;SDS011;56981;53.532;49.398;2023-05-07T01:56:37;3.45;;;2.28;;
69714;SDS011;56981;53.532;49.398;2023-05-07T01:59:03;4.15;;;2.33;;
69714;SDS011;56981;53.532;49.398;2023-05-07T02:01:30;3.08;;;2.50;;
69714;SDS011;56981;53.532;49.398;2023-05-07T02:03:56;4.70;;;2.50;;
69714;SDS011;56981;53.532;49.398;2023-05-07T02:06:22;3.50;;;2.70;;
69714;SDS011;56981;53.532;49.398;2023-05-07T02:08:48;7.78;;;3.20;;
69714;SDS011;56981;53.532;49.398;2023-05-07T02:11:14;4.07;;;2.42;;
69714;SDS011;56981;53.532;49.398;2023-05-07T02:13:40;4.82;;;2.35;;
69714;SDS011;56981;53.532;49.398;2023-05-07T02:16:06;4.55;;;2.53;;
69714;SDS011;56981;53.532;49.398;2023-05-07T02:18:33;3.42;;;2.10;;
69714;SDS011;56981;53.532;49.398;2023-05-07T02:20:59;6.20;;;2.08;;
69714;SDS011;56981;53.532;49.398;2023-05-07T02:23:25;3.25;;;2.28;;
69714;SDS011;56981;53.532;49.398;2023-05-07T02:25:51;2.28;;;1.50;;
69714;SDS011;56981;53.532;49.398;2023-05-07T02:28:17;4.10;;;1.67;;
69714;SDS011;56981;53.532;49.398;2023-05-07T02:30:43;3.00;;;1.80;;
69714;SDS011;56981;53.532;49.398;2023-05-07T02:33:09;1.60;;;1.50;;
69714;SDS011;56981;53.532;49.398;2023-05-07T02:35:37;4.30;;;1.80;;
69714;SDS011;56981;53.532;49.398;2023-05-07T02:38:03;3.70;;;1.70;;
69714;SDS011;56981;53.532;49.398;2023-05-07T02:40:29;3.17;;;1.75;;
69714;SDS011;56981;53.532;49.398;2023-05-07T02:42:59;3.72;;;1.83;;
69714;SDS011;56981;53.532;49.398;2023-05-07T02:45:25;3.55;;;1.70;;
69714;SDS011;56981;53.532;49.398;2023-05-07T02:47:51;3.97;;;1.63;;
69714;SDS011;56981;53.532;49.398;2023-05-07T02:50:17;3.78;;;2.05;;
69714;SDS011;56981;53.532;49.398;2023-05-07T02:52:43;2.72;;;1.83;;
69714;SDS011;56981;53.532;49.398;2023-05-07T02:55:09;3.95;;;1.77;;
69714;SDS011;56981;53.532;49.398;2023-05-07T02:57:35;1.65;;;1.50;;
69714;SDS011;56981;53.532;49.398;2023-05-07T03:00:11;2.97;;;1.83;;
69714;SDS011;56981;53.532;49.398;2023-05-07T03:02:38;2.20;;;1.70;;
69714;SDS011;56981;53.532;49.398;2023-05-07T03:05:04;3.70;;;1.50;;
69714;SDS011;56981;53.532;49.398;2023-05-07T03:07:30;2.50;;;1.60;;
69714;SDS011;56981;53.532;49.398;2023-05-07T03:09:56;2.30;;;1.33;;
69714;SDS011;56981;53.532;49.398;2023-05-07T03:12:22;3.45;;;1.38;;
69714;SDS011;56981;53.532;49.398;2023-05-07T03:14:48;3.72;;;1.52;;
69714;SDS011;56981;53.532;49.398;2023-05-07T03:17:14;2.90;;;1.60;;
69714;SDS011;56981;53.532;49.398;2023-05-07T03:19:41;1.65;;;1.50;;
69714;SDS011;56981;53.532;49.398;2023-05-07T03:22:07;3.58;;;1.42;;
69714;SDS011;56981;53.532;49.398;2023-05-07T03:24:33;11.45;;;1.63;;
69714;SDS011;56981;53.532;49.398;2023-05-07T03:26:59;3.42;;;1.50;;
69714;SDS011;56981;53.532;49.398;2023-05-07T03:29:26;2.67;;;1.30;;
69714;SDS011;56981;53.532;49.398;2023-05-07T03:31:52;3.30;;;1.55;;
69714;SDS011;56981;53.532;49.398;2023-05-07T03:34:18;3.72;;;1.30;;
69714;SDS011;56981;53.532;49.398;2023-05-07T03:36:48;1.17;;;1.08;;
69714;SDS011;56981;53.532;49.398;2023-05-07T03:39:14;3.42;;;1.05;;
69714;SDS011;56981;53.532;49.398;2023-05-07T03:41:41;3.92;;;1.67;;
69714;SDS011;56981;53.532;49.398;2023-05-07T03:44:06;3.08;;;1.30;;
69714;SDS011;56981;53.532;49.398;2023-05-07T03:46:33;1.42;;;1.10;;
69714;SDS011;56981;53.532;49.398;2023-05-07T03:48:59;3.05;;;1.20;;
69714;SDS011;56981;53.532;49.398;2023-05-07T03:51:25;4.82;;;1.20;;
69714;SDS011;56981;53.532;49.398;2023-05-07T03:53:52;1.77;;;1.50;;
69714;SDS011;56981;53.532;49.398;2023-05-07T03:56:18;3.58;;;1.40;;
69714;SDS011;56981;53.532;49.398;2023-05-07T03:58:45;1.13;;;1.10;;
69714;SDS011;56981;53.532;49.398;2023-05-07T04:01:11;1.83;;;1.40;;
69714;SDS011;56981;53.532;49.398;2023-05-07T04:03:37;2.00;;;1.00;;
69714;SDS011;56981;53.532;49.398;2023-05-07T04:06:03;1.17;;;0.90;;
69714;SDS011;56981;53.532;49.398;2023-05-07T04:08:29;2.53;;;1.05;;
69714;SDS011;56981;53.532;49.398;2023-05-07T04:10:56;0.98;;;0.98;;
69714;SDS011;56981;53.532;49.398;2023-05-07T04:13:23;4.40;;;1.15;;
69714;SDS011;56981;53.532;49.398;2023-05-07T04:15:50;1.88;;;1.10;;
69714;SDS011;56981;53.532;49.398;2023-05-07T04:18:17;1.45;;;1.00;;
69714;SDS011;56981;53.532;49.398;2023-05-07T04:20:43;2.58;;;1.10;;
69714;SDS011;56981;53.532;49.398;2023-05-07T04:23:09;0.90;;;0.90;;
69714;SDS011;56981;53.532;49.398;2023-05-07T04:25:35;1.45;;;1.15;;
69714;SDS011;56981;53.532;49.398;2023-05-07T04:28:01;2.97;;;1.10;;
69714;SDS011;56981;53.532;49.398;2023-05-07T04:30:27;1.33;;;1.08;;
69714;SDS011;56981;53.532;49.398;2023-05-07T04:32:53;2.90;;;1.23;;
69714;SDS011;56981;53.532;49.398;2023-05-07T04:35:19;1.30;;;1.15;;
69714;SDS011;56981;53.532;49.398;2023-05-07T04:37:45;2.67;;;0.85;;
69714;SDS011;56981;53.532;49.398;2023-05-07T04:40:11;1.73;;;1.10;;
69714;SDS011;56981;53.532;49.398;2023-05-07T04:42:37;1.08;;;0.90;;
69714;SDS011;56981;53.532;49.398;2023-05-07T04:45:03;1.70;;;1.15;;
69714;SDS011;56981;53.532;49.398;2023-05-07T04:47:30;1.52;;;0.95;;
69714;SDS011;56981;53.532;49.398;2023-05-07T04:49:57;2.15;;;0.90;;
69714;SDS011;56981;53.532;49.398;2023-05-07T04:52:23;2.75;;;1.10;;
69714;SDS011;56981;53.532;49.398;2023-05-07T04:54:49;1.02;;;0.93;;
69714;SDS011;56981;53.532;49.398;2023-05-07T04:57:15;1.92;;;1.00;;
69714;SDS011;56981;53.532;49.398;2023-05-07T04:59:43;2.50;;;0.90;;
69714;SDS011;56981;53.532;49.398;2023-05-07T05:02:10;2.25;;;0.90;;
69714;SDS011;56981;53.532;49.398;2023-05-07T05:04:36;1.65;;;1.02;;
69714;SDS011;56981;53.532;49.398;2023-05-07T05:07:02;0.90;;;0.90;;
69714;SDS011;56981;53.532;49.398;2023-05-07T05:09:31;1.95;;;0.88;;
69714;SDS011;56981;53.532;49.398;2023-05-07T05:11:57;0.90;;;0.90;;
69714;SDS011;56981;53.532;49.398;2023-05-07T05:14:23;2.38;;;1.00;;
69714;SDS011;56981;53.532;49.398;2023-05-07T05:16:49;3.25;;;0.90;;
69714;SDS011;56981;53.532;49.398;2023-05-07T05:19:15;1.20;;;0.98;;
69714;SDS011;56981;53.532;49.398;2023-05-07T05:21:41;0.93;;;0.88;;
69714;SDS011;56981;53.532;49.398;2023-05-07T05:24:07;2.55;;;0.95;;
69714;SDS011;56981;53.532;49.398;2023-05-07T05:26:34;0.80;;;0.75;;
69714;SDS011;56981;53.532;49.398;2023-05-07T05:29:00;3.08;;;1.15;;
69714;SDS011;56981;53.532;49.398;2023-05-07T05:31:26;2.25;;;1.00;;
69714;SDS011;56981;53.532;49.398;2023-05-07T05:33:52;3.88;;;1.00;;
69714;SDS011;56981;53.532;49.398;2023-05-07T05:36:18;0.98;;;0.93;;
69714;SDS011;56981;53.532;49.398;2023-05-07T05:38:44;1.70;;;1.05;;
69714;SDS011;56981;53.532;49.398;2023-05-07T05:41:10;1.75;;;0.88;;
69714;SDS011;56981;53.532;49.398;2023-05-07T05:43:36;2.30;;;0.93;;
69714;SDS011;56981;53.532;49.398;2023-05-07T05:46:02;2.65;;;0.90;;
69714;SDS011;56981;53.532;49.398;2023-05-07T05:48:29;1.65;;;0.82;;
69714;SDS011;56981;53.532;49.398;2023-05-07T05:50:55;1.98;;;0.85;;
69714;SDS011;56981;53.532;49.398;2023-05-07T05:53:22;1.67;;;1.00;;
69714;SDS011;56981;53.532;49.398;2023-05-07T05:55:48;2.05;;;0.90;;
69714;SDS011;56981;53.532;49.398;2023-05-07T05:58:14;3.13;;;1.10;;
69714;SDS011;56981;53.532;49.398;2023-05-07T06:00:40;1.50;;;0.90;;
69714;SDS011;56981;53.532;49.398;2023-05-07T06:03:06;2.15;;;0.80;;
69714;SDS011;56981;53.532;49.398;2023-05-07T06:05:32;2.33;;;0.90;;
69714;SDS011;56981;53.532;49.398;2023-05-07T06:07:58;2.20;;;1.00;;
69714;SDS011;56981;53.532;49.398;2023-05-07T06:10:24;1.20;;;0.80;;
69714;SDS011;56981;53.532;49.398;2023-05-07T06:12:52;0.75;;;0.70;;
69714;SDS011;56981;53.532;49.398;2023-05-07T06:15:18;2.15;;;0.98;;
69714;SDS011;56981;53.532;49.398;2023-05-07T06:17:44;1.30;;;0.80;;
69714;SDS011;56981;53.532;49.398;2023-05-07T06:20:10;0.75;;;0.75;;
69714;SDS011;56981;53.532;49.398;2023-05-07T06:22:36;1.92;;;0.90;;
69714;SDS011;56981;53.532;49.398;2023-05-07T06:25:02;1.33;;;0.77;;
69714;SDS011;56981;53.532;49.398;2023-05-07T06:27:29;2.20;;;0.55;;
69714;SDS011;56981;53.532;49.398;2023-05-07T06:29:55;3.38;;;0.82;;
69714;SDS011;56981;53.532;49.398;2023-05-07T06:32:21;4.28;;;0.70;;
69714;SDS011;56981;53.532;49.398;2023-05-07T06:34:47;3.70;;;1.02;;
69714;SDS011;56981;53.532;49.398;2023-05-07T06:37:12;1.10;;;0.80;;
69714;SDS011;56981;53.532;49.398;2023-05-07T06:39:39;5.40;;;4.03;;
69714;SDS011;56981;53.532;49.398;2023-05-07T06:42:05;2.80;;;1.02;;
69714;SDS011;56981;53.532;49.398;2023-05-07T06:44:31;0.70;;;0.70;;
69714;SDS011;56981;53.532;49.398;2023-05-07T06:46:57;1.15;;;0.68;;
69714;SDS011;56981;53.532;49.398;2023-05-07T06:49:23;2.35;;;1.00;;
69714;SDS011;56981;53.532;49.398;2023-05-07T06:51:49;3.95;;;1.02;;
69714;SDS011;56981;53.532;49.398;2023-05-07T06:54:15;1.45;;;0.70;;
69714;SDS011;56981;53.532;49.398;2023-05-07T06:56:41;19.92;;;1.30;;
69714;SDS011;56981;53.532;49.398;2023-05-07T06:59:08;5.35;;;0.90;;
69714;SDS011;56981;53.532;49.398;2023-05-07T07:01:33;0.80;;;0.55;;
69714;SDS011;56981;53.532;49.398;2023-05-07T07:03:59;2.22;;;0.85;;
69714;SDS011;56981;53.532;49.398;2023-05-07T07:06:25;0.60;;;0.50;;
69714;SDS011;56981;53.532;49.398;2023-05-07T07:08:52;1.38;;;0.50;;
69714;SDS011;56981;53.532;49.398;2023-05-07T07:11:18;1.05;;;0.70;;
69714;SDS011;56981;53.532;49.398;2023-05-07T07:13:44;1.55;;;0.70;;
69714;SDS011;56981;53.532;49.398;2023-05-07T07:16:10;0.85;;;0.65;;
69714;SDS011;56981;53.532;49.398;2023-05-07T07:18:36;5.50;;;0.90;;
69714;SDS011;56981;53.532;49.398;2023-05-07T07:21:03;3.20;;;1.67;;
69714;SDS011;56981;53.532;49.398;2023-05-07T07:23:29;2.05;;;0.63;;
69714;SDS011;56981;53.532;49.398;2023-05-07T07:25:55;8.30;;;0.90;;
69714;SDS011;56981;53.532;49.398;2023-05-07T07:28:21;1.83;;;0.77;;
69714;SDS011;56981;53.532;49.398;2023-05-07T07:30:47;0.63;;;0.63;;
69714;SDS011;56981;53.532;49.398;2023-05-07T07:33:14;0.82;;;0.70;;
69714;SDS011;56981;53.532;49.398;2023-05-07T07:35:40;1.88;;;0.73;;
69714;SDS011;56981;53.532;49.398;2023-05-07T07:38:06;1.27;;;0.80;;
69714;SDS011;56981;53.532;49.398;2023-05-07T07:40:34;1.95;;;1.00;;
69714;SDS011;56981;53.532;49.398;2023-05-07T07:43:00;3.20;;;0.75;;
69714;SDS011;56981;53.532;49.398;2023-05-07T07:45:26;1.13;;;0.65;;
69714;SDS011;56981;53.532;49.398;2023-05-07T07:47:53;0.70;;;0.60;;
69714;SDS011;56981;53.532;49.398;2023-05-07T07:50:19;14.43;;;1.65;;
69714;SDS011;56981;53.532;49.398;2023-05-07T07:52:45;2.55;;;0.70;;
69714;SDS011;56981;53.532;49.398;2023-05-07T07:55:11;0.40;;;0.40;;
69714;SDS011;56981;53.532;49.398;2023-05-07T07:57:37;3.25;;;1.75;;
69714;SDS011;56981;53.532;49.398;2023-05-07T08:00:05;3.15;;;0.85;;
69714;SDS011;56981;53.532;49.398;2023-05-07T08:02:32;0.60;;;0.50;;
69714;SDS011;56981;53.532;49.398;2023-05-07T08:04:58;2.70;;;0.70;;
69714;SDS011;56981;53.532;49.398;2023-05-07T08:07:24;1.65;;;0.85;;
69714;SDS011;56981;53.532;49.398;2023-05-07T08:09:50;2.08;;;1.23;;
69714;SDS011;56981;53.532;49.398;2023-05-07T08:12:16;4.97;;;0.80;;
69714;SDS011;56981;53.532;49.398;2023-05-07T08:14:43;0.70;;;0.68;;
69714;SDS011;56981;53.532;49.398;2023-05-07T08:17:09;0.80;;;0.63;;
69714;SDS011;56981;53.532;49.398;2023-05-07T08:19:35;0.75;;;0.60;;
69714;SDS011;56981;53.532;49.398;2023-05-07T08:22:02;2.17;;;0.60;;
69714;SDS011;56981;53.532;49.398;2023-05-07T08:24:29;2.83;;;1.25;;
69714;SDS011;56981;53.532;49.398;2023-05-07T08:26:55;4.47;;;0.90;;
69714;SDS011;56981;53.532;49.398;2023-05-07T08:29:21;3.13;;;1.40;;
69714;SDS011;56981;53.532;49.398;2023-05-07T08:31:47;2.63;;;1.10;;
69714;SDS011;56981;53.532;49.398;2023-05-07T08:34:13;1.70;;;0.70;;
69714;SDS011;56981;53.532;49.398;2023-05-07T08:36:39;2.63;;;0.95;;
69714;SDS011;56981;53.532;49.398;2023-05-07T08:39:07;2.25;;;0.70;;
69714;SDS011;56981;53.532;49.398;2023-05-07T08:41:33;3.08;;;1.00;;
69714;SDS011;56981;53.532;49.398;2023-05-07T08:44:00;3.20;;;0.75;;
69714;SDS011;56981;53.532;49.398;2023-05-07T08:46:29;9.32;;;1.20;;
69714;SDS011;56981;53.532;49.398;2023-05-07T08:48:57;18.65;;;1.83;;
69714;SDS011;56981;53.532;49.398;2023-05-07T08:51:23;1.42;;;0.73;;
69714;SDS011;56981;53.532;49.398;2023-05-07T08:53:49;2.50;;;0.77;;
69714;SDS011;56981;53.532;49.398;2023-05-07T08:56:16;2.15;;;0.80;;
69714;SDS011;56981;53.532;49.398;2023-05-07T08:58:43;1.65;;;1.20;;
69714;SDS011;56981;53.532;49.398;2023-05-07T09:01:13;1.25;;;0.85;;
69714;SDS011;56981;53.532;49.398;2023-05-07T09:03:42;2.55;;;1.13;;
69714;SDS011;56981;53.532;49.398;2023-05-07T09:06:10;0.85;;;0.77;;
69714;SDS011;56981;53.532;49.398;2023-05-07T09:08:36;3.83;;;1.00;;
69714;SDS011;56981;53.532;49.398;2023-05-07T09:11:02;3.13;;;1.10;;
69714;SDS011;56981;53.532;49.398;2023-05-07T09:13:29;4.07;;;1.02;;
69714;SDS011;56981;53.532;49.398;2023-05-07T09:15:55;1.02;;;0.95;;
69714;SDS011;56981;53.532;49.398;2023-05-07T09:18:25;1.60;;;1.02;;
69714;SDS011;56981;53.532;49.398;2023-05-07T09:20:51;5.55;;;2.75;;
69714;SDS011;56981;53.532;49.398;2023-05-07T09:23:17;2.15;;;0.98;;
69714;SDS011;56981;53.532;49.398;2023-05-07T09:25:43;1.35;;;1.10;;
69714;SDS011;56981;53.532;49.398;2023-05-07T09:28:09;0.80;;;0.80;;
69714;SDS011;56981;53.532;49.398;2023-05-07T09:30:36;4.30;;;1.20;;
69714;SDS011;56981;53.532;49.398;2023-05-07T09:33:02;6.40;;;1.52;;
69714;SDS011;56981;53.532;49.398;2023-05-07T09:35:29;4.95;;;1.20;;
69714;SDS011;56981;53.532;49.398;2023-05-07T09:37:56;2.38;;;1.20;;
69714;SDS011;56981;53.532;49.398;2023-05-07T09:40:28;2.10;;;1.40;;
69714;SDS011;56981;53.532;49.398;2023-05-07T09:42:55;3.95;;;1.42;;
69714;SDS011;56981;53.532;49.398;2023-05-07T09:45:21;3.40;;;1.52;;
69714;SDS011;56981;53.532;49.398;2023-05-07T09:47:55;2.08;;;1.13;;
69714;SDS011;56981;53.532;49.398;2023-05-07T09:50:28;2.17;;;1.60;;
69714;SDS011;56981;53.532;49.398;2023-05-07T09:52:56;3.33;;;1.13;;
69714;SDS011;56981;53.532;49.398;2023-05-07T09:55:22;4.63;;;1.23;;
69714;SDS011;56981;53.532;49.398;2023-05-07T09:57:50;1.55;;;1.00;;
69714;SDS011;56981;53.532;49.398;2023-05-07T10:00:20;4.45;;;1.30;;
69714;SDS011;56981;53.532;49.398;2023-05-07T10:02:49;1.95;;;1.30;;
69714;SDS011;56981;53.532;49.398;2023-05-07T10:05:20;2.40;;;1.67;;
69714;SDS011;56981;53.532;49.398;2023-05-07T10:07:47;1.50;;;1.10;;
69714;SDS011;56981;53.532;49.398;2023-05-07T10:10:14;1.15;;;0.85;;
69714;SDS011;56981;53.532;49.398;2023-05-07T10:12:43;2.60;;;1.05;;
69714;SDS011;56981;53.532;49.398;2023-05-07T10:15:10;1.80;;;1.02;;
69714;SDS011;56981;53.532;49.398;2023-05-07T10:17:37;8.02;;;3.38;;
69714;SDS011;56981;53.532;49.398;2023-05-07T10:20:05;1.77;;;1.17;;
69714;SDS011;56981;53.532;49.398;2023-05-07T10:22:39;2.80;;;1.77;;
69714;SDS011;56981;53.532;49.398;2023-05-07T10:28:10;5.97;;;1.35;;
69714;SDS011;56981;53.532;49.398;2023-05-07T10:33:19;6.30;;;1.35;;
69714;SDS011;56981;53.532;49.398;2023-05-07T10:35:51;4.70;;;1.60;;
69714;SDS011;56981;53.532;49.398;2023-05-07T10:38:26;1.55;;;1.20;;
69714;SDS011;56981;53.532;49.398;2023-05-07T10:40:53;8.40;;;1.60;;
69714;SDS011;56981;53.532;49.398;2023-05-07T10:43:19;3.38;;;1.77;;
69714;SDS011;56981;53.532;49.398;2023-05-07T10:51:34;2.15;;;0.90;;
69714;SDS011;56981;53.532;49.398;2023-05-07T11:01:54;2.47;;;1.08;;
69714;SDS011;56981;53.532;49.398;2023-05-07T11:04:21;2.70;;;1.05;;
69714;SDS011;56981;53.532;49.398;2023-05-07T11:12:17;0.88;;;0.88;;
69714;SDS011;56981;53.532;49.398;2023-05-07T11:15:04;1.90;;;1.20;;
69714;SDS011;56981;53.532;49.398;2023-05-07T11:17:56;1.63;;;0.82;;
69714;SDS011;56981;53.532;49.398;2023-05-07T11:28:30;2.67;;;1.00;;
69714;SDS011;56981;53.532;49.398;2023-05-07T11:30:57;1.08;;;0.75;;
69714;SDS011;56981;53.532;49.398;2023-05-07T11:33:23;2.40;;;1.10;;
69714;SDS011;56981;53.532;49.398;2023-05-07T11:35:55;2.80;;;1.00;;
69714;SDS011;56981;53.532;49.398;2023-05-07T11:38:22;1.60;;;0.80;;
69714;SDS011;56981;53.532;49.398;2023-05-07T11:40:48;1.05;;;0.95;;
69714;SDS011;56981;53.532;49.398;2023-05-07T11:43:18;1.65;;;1.27;;
69714;SDS011;56981;53.532;49.398;2023-05-07T11:45:45;1.17;;;0.82;;
69714;SDS011;56981;53.532;49.398;2023-05-07T11:48:12;2.30;;;1.13;;
69714;SDS011;56981;53.532;49.398;2023-05-07T11:50:49;3.58;;;1.10;;
69714;SDS011;56981;53.532;49.398;2023-05-07T11:53:17;2.92;;;0.77;;
69714;SDS011;56981;53.532;49.398;2023-05-07T11:55:43;3.50;;;0.90;;
69714;SDS011;56981;53.532;49.398;2023-05-07T11:58:11;1.48;;;1.00;;
69714;SDS011;56981;53.532;49.398;2023-05-07T12:00:38;3.20;;;0.80;;
69714;SDS011;56981;53.532;49.398;2023-05-07T12:03:04;4.93;;;1.90;;
69714;SDS011;56981;53.532;49.398;2023-05-07T12:05:30;0.82;;;0.80;;
69714;SDS011;56981;53.532;49.398;2023-05-07T12:07:57;2.47;;;1.10;;
69714;SDS011;56981;53.532;49.398;2023-05-07T12:10:23;2.65;;;1.10;;
69714;SDS011;56981;53.532;49.398;2023-05-07T12:12:50;2.30;;;1.30;;
69714;SDS011;56981;53.532;49.398;2023-05-07T12:15:16;3.85;;;1.30;;
69714;SDS011;56981;53.532;49.398;2023-05-07T12:17:43;1.55;;;0.90;;
69714;SDS011;56981;53.532;49.398;2023-05-07T12:20:09;2.83;;;0.90;;
69714;SDS011;56981;53.532;49.398;2023-05-07T12:22:36;4.30;;;1.30;;
69714;SDS011;56981;53.532;49.398;2023-05-07T12:25:02;1.70;;;1.02;;
69714;SDS011;56981;53.532;49.398;2023-05-07T12:27:31;2.17;;;1.00;;
69714;SDS011;56981;53.532;49.398;2023-05-07T12:29:57;3.00;;;1.85;;
69714;SDS011;56981;53.532;49.398;2023-05-07T12:32:26;1.73;;;0.88;;
69714;SDS011;56981;53.532;49.398;2023-05-07T12:34:52;3.67;;;0.90;;
69714;SDS011;56981;53.532;49.398;2023-05-07T12:37:22;4.75;;;1.52;;
69714;SDS011;56981;53.532;49.398;2023-05-07T12:40:03;1.40;;;1.00;;
69714;SDS011;56981;53.532;49.398;2023-05-07T12:42:39;9.00;;;1.63;;
69714;SDS011;56981;53.532;49.398;2023-05-07T12:45:09;1.17;;;0.85;;
69714;SDS011;56981;53.532;49.398;2023-05-07T12:47:36;3.42;;;2.38;;
69714;SDS011;56981;53.532;49.398;2023-05-07T12:50:04;1.65;;;1.33;;
69714;SDS011;56981;53.532;49.398;2023-05-07T12:52:31;1.65;;;0.80;;
69714;SDS011;56981;53.532;49.398;2023-05-07T12:55:04;4.88;;;1.40;;
69714;SDS011;56981;53.532;49.398;2023-05-07T12:57:31;2.47;;;1.20;;
69714;SDS011;56981;53.532;49.398;2023-05-07T13:00:05;4.07;;;1.92;;
69714;SDS011;56981;53.532;49.398;2023-05-07T13:02:33;8.23;;;1.52;;
69714;SDS011;56981;53.532;49.398;2023-05-07T13:05:00;3.65;;;0.80;;
69714;SDS011;56981;53.532;49.398;2023-05-07T13:07:26;2.45;;;1.30;;
69714;SDS011;56981;53.532;49.398;2023-05-07T13:09:52;3.65;;;1.50;;
69714;SDS011;56981;53.532;49.398;2023-05-07T13:12:18;2.83;;;1.20;;
69714;SDS011;56981;53.532;49.398;2023-05-07T13:14:44;2.33;;;2.13;;
69714;SDS011;56981;53.532;49.398;2023-05-07T13:17:10;1.30;;;1.20;;
69714;SDS011;56981;53.532;49.398;2023-05-07T13:19:36;6.55;;;1.40;;
69714;SDS011;56981;53.532;49.398;2023-05-07T13:22:03;1.80;;;0.98;;
69714;SDS011;56981;53.532;49.398;2023-05-07T13:24:29;1.48;;;1.00;;
69714;SDS011;56981;53.532;49.398;2023-05-07T13:26:57;2.17;;;1.50;;
69714;SDS011;56981;53.532;49.398;2023-05-07T13:29:22;1.90;;;1.30;;
69714;SDS011;56981;53.532;49.398;2023-05-07T13:31:58;3.47;;;1.27;;
69714;SDS011;56981;53.532;49.398;2023-05-07T13:34:25;1.08;;;0.93;;
69714;SDS011;56981;53.532;49.398;2023-05-07T13:36:51;2.03;;;1.08;;
69714;SDS011;56981;53.532;49.398;2023-05-07T13:39:17;4.43;;;2.00;;
69714;SDS011;56981;53.532;49.398;2023-05-07T13:41:43;3.33;;;1.00;;
69714;SDS011;56981;53.532;49.398;2023-05-07T13:44:09;2.25;;;1.70;;
69714;SDS011;56981;53.532;49.398;2023-05-07T13:46:35;1.25;;;1.15;;
69714;SDS011;56981;53.532;49.398;2023-05-07T13:49:01;3.28;;;1.38;;
69714;SDS011;56981;53.532;49.398;2023-05-07T13:51:27;2.63;;;2.08;;
69714;SDS011;56981;53.532;49.398;2023-05-07T13:53:53;1.85;;;1.30;;
69714;SDS011;56981;53.532;49.398;2023-05-07T13:56:19;3.60;;;1.17;;
69714;SDS011;56981;53.532;49.398;2023-05-07T13:58:46;1.55;;;1.00;;
69714;SDS011;56981;53.532;49.398;2023-05-07T14:01:12;1.42;;;1.00;;
69714;SDS011;56981;53.532;49.398;2023-05-07T14:03:38;1.10;;;0.98;;
69714;SDS011;56981;53.532;49.398;2023-05-07T14:06:05;1.45;;;1.20;;
69714;SDS011;56981;53.532;49.398;2023-05-07T14:08:31;1.42;;;1.10;;
69714;SDS011;56981;53.532;49.398;2023-05-07T14:10:57;1.35;;;1.20;;
69714;SDS011;56981;53.532;49.398;2023-05-07T14:13:23;8.35;;;2.35;;
69714;SDS011;56981;53.532;49.398;2023-05-07T14:15:49;3.53;;;1.70;;
69714;SDS011;56981;53.532;49.398;2023-05-07T14:18:16;4.57;;;3.28;;
69714;SDS011;56981;53.532;49.398;2023-05-07T14:20:41;8.88;;;4.30;;
69714;SDS011;56981;53.532;49.398;2023-05-07T14:23:11;2.75;;;1.27;;
69714;SDS011;56981;53.532;49.398;2023-05-07T14:25:37;8.00;;;3.35;;
69714;SDS011;56981;53.532;49.398;2023-05-07T14:28:04;3.47;;;1.63;;
69714;SDS011;56981;53.532;49.398;2023-05-07T14:30:30;2.13;;;1.30;;
69714;SDS011;56981;53.532;49.398;2023-05-07T14:32:56;2.63;;;1.10;;
69714;SDS011;56981;53.532;49.398;2023-05-07T14:35:22;2.90;;;1.40;;
69714;SDS011;56981;53.532;49.398;2023-05-07T14:37:48;2.58;;;1.27;;
69714;SDS011;56981;53.532;49.398;2023-05-07T14:40:14;4.45;;;2.63;;
69714;SDS011;56981;53.532;49.398;2023-05-07T14:42:40;13.07;;;2.10;;
69714;SDS011;56981;53.532;49.398;2023-05-07T14:45:06;5.97;;;2.20;;
69714;SDS011;56981;53.532;49.398;2023-05-07T14:47:32;3.33;;;2.00;;
69714;SDS011;56981;53.532;49.398;2023-05-07T14:49:59;3.60;;;2.25;;
69714;SDS011;56981;53.532;49.398;2023-05-07T14:52:26;7.70;;;4.47;;
69714;SDS011;56981;53.532;49.398;2023-05-07T14:54:52;1.90;;;1.58;;
69714;SDS011;56981;53.532;49.398;2023-05-07T14:57:18;3.72;;;1.33;;
69714;SDS011;56981;53.532;49.398;2023-05-07T14:59:45;3.15;;;1.20;;
69714;SDS011;56981;53.532;49.398;2023-05-07T15:02:12;2.30;;;1.00;;
69714;SDS011;56981;53.532;49.398;2023-05-07T15:04:39;7.18;;;1.20;;